Broussard, Louisiana
Current Conditions -  °F | °C
As of 2:53 PM on Tuesday 27 Jan 2015 (Local Time) from KLFT Reporting Station
Clear Clear  
Wind Chill: 75°   Ceiling: Unl
Heat Index: 75°   Visibility: 10mi
Dew Point: 41°   Wind: 7mph
Humidity: 29%   Direction: 30°NNE
Pressure: 30.09"   Gusts: NA
Location:  30.15°N, 91.96°W
Report Text: KLFT 272053Z AUTO 03006KT 10SM CLR 24/05 A3009 RMK AO2 SLP189 T02390050 56016
Loading
Personal Weather Stations






























Interactive Weather Map New forecast layout! Learn more

10-Day Weather Forecast

Advertisements
Track Severe Weather on mobile